sensor_id;sensor_type;location;lat;lon;timestamp;temperature;humidity
36450;DHT22;22475;51.390;7.180;2022-12-11T00:02:16;4.10;96.70
36450;DHT22;22475;51.390;7.180;2022-12-11T00:04:43;4.10;96.70
36450;DHT22;22475;51.390;7.180;2022-12-11T00:07:11;4.10;96.70
36450;DHT22;22475;51.390;7.180;2022-12-11T00:09:38;4.10;96.70
36450;DHT22;22475;51.390;7.180;2022-12-11T00:12:05;4.10;96.70
36450;DHT22;22475;51.390;7.180;2022-12-11T00:14:33;4.10;96.70
36450;DHT22;22475;51.390;7.180;2022-12-11T00:16:59;4.10;96.70
36450;DHT22;22475;51.390;7.180;2022-12-11T00:19:26;4.10;96.70
36450;DHT22;22475;51.390;7.180;2022-12-11T00:21:53;4.10;96.70
36450;DHT22;22475;51.390;7.180;2022-12-11T00:24:21;4.00;96.70
36450;DHT22;22475;51.390;7.180;2022-12-11T00:26:48;4.00;96.70
36450;DHT22;22475;51.390;7.180;2022-12-11T00:29:14;4.00;96.80
36450;DHT22;22475;51.390;7.180;2022-12-11T00:31:41;4.10;96.80
36450;DHT22;22475;51.390;7.180;2022-12-11T00:34:09;4.00;96.70
36450;DHT22;22475;51.390;7.180;2022-12-11T00:36:37;4.00;96.80
36450;DHT22;22475;51.390;7.180;2022-12-11T00:39:05;4.10;96.90
36450;DHT22;22475;51.390;7.180;2022-12-11T00:41:33;4.10;96.90
36450;DHT22;22475;51.390;7.180;2022-12-11T00:44:00;4.10;96.90
36450;DHT22;22475;51.390;7.180;2022-12-11T00:46:26;4.10;96.80
36450;DHT22;22475;51.390;7.180;2022-12-11T00:48:53;4.10;96.90
36450;DHT22;22475;51.390;7.180;2022-12-11T00:51:20;4.10;96.90
36450;DHT22;22475;51.390;7.180;2022-12-11T00:53:47;4.10;96.80
36450;DHT22;22475;51.390;7.180;2022-12-11T00:56:16;4.10;96.80
36450;DHT22;22475;51.390;7.180;2022-12-11T00:58:44;4.10;96.80
36450;DHT22;22475;51.390;7.180;2022-12-11T01:01:12;4.10;96.80
36450;DHT22;22475;51.390;7.180;2022-12-11T01:03:39;4.10;96.80
36450;DHT22;22475;51.390;7.180;2022-12-11T01:06:07;4.10;96.90
36450;DHT22;22475;51.390;7.180;2022-12-11T01:08:33;4.10;96.90
36450;DHT22;22475;51.390;7.180;2022-12-11T01:11:02;4.10;96.90
36450;DHT22;22475;51.390;7.180;2022-12-11T01:13:28;4.10;96.90
36450;DHT22;22475;51.390;7.180;2022-12-11T01:15:56;4.10;97.00
36450;DHT22;22475;51.390;7.180;2022-12-11T01:18:23;4.10;97.00
36450;DHT22;22475;51.390;7.180;2022-12-11T01:20:50;4.10;97.00
36450;DHT22;22475;51.390;7.180;2022-12-11T01:23:17;4.10;97.00
36450;DHT22;22475;51.390;7.180;2022-12-11T01:25:44;4.10;97.10
36450;DHT22;22475;51.390;7.180;2022-12-11T01:28:11;4.10;97.00
36450;DHT22;22475;51.390;7.180;2022-12-11T01:30:40;4.10;97.00
36450;DHT22;22475;51.390;7.180;2022-12-11T01:33:09;4.10;97.00
36450;DHT22;22475;51.390;7.180;2022-12-11T01:35:38;4.10;97.00
36450;DHT22;22475;51.390;7.180;2022-12-11T01:38:05;4.10;97.10
36450;DHT22;22475;51.390;7.180;2022-12-11T01:40:32;4.10;97.10
36450;DHT22;22475;51.390;7.180;2022-12-11T01:42:58;4.10;97.10
36450;DHT22;22475;51.390;7.180;2022-12-11T01:45:38;4.10;97.10
36450;DHT22;22475;51.390;7.180;2022-12-11T01:48:10;4.10;97.10
36450;DHT22;22475;51.390;7.180;2022-12-11T01:50:40;4.10;97.10
36450;DHT22;22475;51.390;7.180;2022-12-11T01:53:10;4.10;97.10
36450;DHT22;22475;51.390;7.180;2022-12-11T01:55:38;4.10;97.10
36450;DHT22;22475;51.390;7.180;2022-12-11T01:58:06;4.10;97.10
36450;DHT22;22475;51.390;7.180;2022-12-11T02:00:33;4.10;97.20
36450;DHT22;22475;51.390;7.180;2022-12-11T02:03:00;4.10;97.10
36450;DHT22;22475;51.390;7.180;2022-12-11T02:05:28;4.10;97.20
36450;DHT22;22475;51.390;7.180;2022-12-11T02:07:57;4.10;97.20
36450;DHT22;22475;51.390;7.180;2022-12-11T02:10:33;4.10;97.20
36450;DHT22;22475;51.390;7.180;2022-12-11T02:13:08;4.10;97.20
36450;DHT22;22475;51.390;7.180;2022-12-11T02:15:43;4.10;97.20
36450;DHT22;22475;51.390;7.180;2022-12-11T02:18:18;4.10;97.20
36450;DHT22;22475;51.390;7.180;2022-12-11T02:20:53;4.10;97.20
36450;DHT22;22475;51.390;7.180;2022-12-11T02:23:52;4.10;97.20
36450;DHT22;22475;51.390;7.180;2022-12-11T02:26:38;4.10;97.30
36450;DHT22;22475;51.390;7.180;2022-12-11T02:29:13;4.10;97.30
36450;DHT22;22475;51.390;7.180;2022-12-11T02:31:46;4.20;97.20
36450;DHT22;22475;51.390;7.180;2022-12-11T02:34:17;4.10;97.30
36450;DHT22;22475;51.390;7.180;2022-12-11T02:36:47;4.20;97.30
36450;DHT22;22475;51.390;7.180;2022-12-11T02:39:15;4.20;97.30
36450;DHT22;22475;51.390;7.180;2022-12-11T02:41:48;4.20;97.10
36450;DHT22;22475;51.390;7.180;2022-12-11T02:44:19;4.20;97.10
36450;DHT22;22475;51.390;7.180;2022-12-11T02:46:47;4.20;97.20
36450;DHT22;22475;51.390;7.180;2022-12-11T02:49:15;4.20;97.30
36450;DHT22;22475;51.390;7.180;2022-12-11T02:51:43;4.20;97.30
36450;DHT22;22475;51.390;7.180;2022-12-11T02:54:13;4.20;97.30
36450;DHT22;22475;51.390;7.180;2022-12-11T02:56:44;4.20;97.30
36450;DHT22;22475;51.390;7.180;2022-12-11T02:59:14;4.20;97.30
36450;DHT22;22475;51.390;7.180;2022-12-11T03:01:44;4.20;97.30
36450;DHT22;22475;51.390;7.180;2022-12-11T03:04:12;4.20;97.30
36450;DHT22;22475;51.390;7.180;2022-12-11T03:06:41;4.30;97.30
36450;DHT22;22475;51.390;7.180;2022-12-11T03:09:11;4.20;97.30
36450;DHT22;22475;51.390;7.180;2022-12-11T03:11:38;4.30;97.30
36450;DHT22;22475;51.390;7.180;2022-12-11T03:14:05;4.30;97.30
36450;DHT22;22475;51.390;7.180;2022-12-11T03:16:35;4.30;97.30
36450;DHT22;22475;51.390;7.180;2022-12-11T03:19:12;4.20;97.30
36450;DHT22;22475;51.390;7.180;2022-12-11T03:21:47;4.30;97.30
36450;DHT22;22475;51.390;7.180;2022-12-11T03:24:19;4.30;97.30
36450;DHT22;22475;51.390;7.180;2022-12-11T03:26:51;4.30;97.30
36450;DHT22;22475;51.390;7.180;2022-12-11T03:29:20;4.30;97.30
36450;DHT22;22475;51.390;7.180;2022-12-11T03:31:53;4.30;97.30
36450;DHT22;22475;51.390;7.180;2022-12-11T03:34:28;4.30;97.30
36450;DHT22;22475;51.390;7.180;2022-12-11T03:36:57;4.30;97.30
36450;DHT22;22475;51.390;7.180;2022-12-11T03:39:28;4.30;97.30
36450;DHT22;22475;51.390;7.180;2022-12-11T03:41:56;4.30;97.30
36450;DHT22;22475;51.390;7.180;2022-12-11T03:44:26;4.30;97.30
36450;DHT22;22475;51.390;7.180;2022-12-11T03:46:56;4.30;97.30
36450;DHT22;22475;51.390;7.180;2022-12-11T03:49:29;4.30;97.30
36450;DHT22;22475;51.390;7.180;2022-12-11T03:51:59;4.30;97.30
36450;DHT22;22475;51.390;7.180;2022-12-11T03:54:27;4.30;97.30
36450;DHT22;22475;51.390;7.180;2022-12-11T03:56:56;4.30;97.30
36450;DHT22;22475;51.390;7.180;2022-12-11T03:59:23;4.30;97.30
36450;DHT22;22475;51.390;7.180;2022-12-11T04:01:50;4.30;97.30
36450;DHT22;22475;51.390;7.180;2022-12-11T04:04:17;4.30;97.30
36450;DHT22;22475;51.390;7.180;2022-12-11T04:06:45;4.30;97.40
36450;DHT22;22475;51.390;7.180;2022-12-11T04:09:12;4.20;97.30
36450;DHT22;22475;51.390;7.180;2022-12-11T04:11:38;4.20;97.30
36450;DHT22;22475;51.390;7.180;2022-12-11T04:14:09;4.20;97.30
36450;DHT22;22475;51.390;7.180;2022-12-11T04:16:56;4.20;97.30
36450;DHT22;22475;51.390;7.180;2022-12-11T04:19:23;4.20;97.30
36450;DHT22;22475;51.390;7.180;2022-12-11T04:22:11;4.20;97.30
36450;DHT22;22475;51.390;7.180;2022-12-11T04:24:52;4.20;97.40
36450;DHT22;22475;51.390;7.180;2022-12-11T04:27:19;4.20;97.40
36450;DHT22;22475;51.390;7.180;2022-12-11T04:29:59;4.20;97.30
36450;DHT22;22475;51.390;7.180;2022-12-11T04:32:26;4.20;97.30
36450;DHT22;22475;51.390;7.180;2022-12-11T04:34:53;4.20;97.30
36450;DHT22;22475;51.390;7.180;2022-12-11T04:37:21;4.20;97.30
36450;DHT22;22475;51.390;7.180;2022-12-11T04:39:48;4.20;97.30
36450;DHT22;22475;51.390;7.180;2022-12-11T04:42:15;4.20;97.30
36450;DHT22;22475;51.390;7.180;2022-12-11T04:44:42;4.20;97.30
36450;DHT22;22475;51.390;7.180;2022-12-11T04:47:08;4.20;97.30
36450;DHT22;22475;51.390;7.180;2022-12-11T04:49:35;4.20;97.30
36450;DHT22;22475;51.390;7.180;2022-12-11T04:52:02;4.20;97.30
36450;DHT22;22475;51.390;7.180;2022-12-11T04:54:31;4.10;97.20
36450;DHT22;22475;51.390;7.180;2022-12-11T04:56:58;4.20;97.30
36450;DHT22;22475;51.390;7.180;2022-12-11T04:59:24;4.10;97.30
36450;DHT22;22475;51.390;7.180;2022-12-11T05:01:51;4.10;97.30
36450;DHT22;22475;51.390;7.180;2022-12-11T05:04:18;4.10;97.30
36450;DHT22;22475;51.390;7.180;2022-12-11T05:06:44;4.10;97.60
36450;DHT22;22475;51.390;7.180;2022-12-11T05:09:11;4.10;97.30
36450;DHT22;22475;51.390;7.180;2022-12-11T05:11:39;4.20;97.30
36450;DHT22;22475;51.390;7.180;2022-12-11T05:14:06;4.20;97.30
36450;DHT22;22475;51.390;7.180;2022-12-11T05:16:33;4.20;97.30
36450;DHT22;22475;51.390;7.180;2022-12-11T05:19:00;4.10;97.30
36450;DHT22;22475;51.390;7.180;2022-12-11T05:21:27;4.20;97.30
36450;DHT22;22475;51.390;7.180;2022-12-11T05:23:54;4.20;97.30
36450;DHT22;22475;51.390;7.180;2022-12-11T05:26:20;4.20;97.30
36450;DHT22;22475;51.390;7.180;2022-12-11T05:28:53;4.20;97.30
36450;DHT22;22475;51.390;7.180;2022-12-11T05:31:22;4.20;97.30
36450;DHT22;22475;51.390;7.180;2022-12-11T05:33:49;4.20;97.30
36450;DHT22;22475;51.390;7.180;2022-12-11T05:36:18;4.20;97.20
36450;DHT22;22475;51.390;7.180;2022-12-11T05:38:45;4.20;97.20
36450;DHT22;22475;51.390;7.180;2022-12-11T05:41:14;4.20;97.20
36450;DHT22;22475;51.390;7.180;2022-12-11T05:43:42;4.20;97.20
36450;DHT22;22475;51.390;7.180;2022-12-11T05:46:12;4.20;97.20
36450;DHT22;22475;51.390;7.180;2022-12-11T05:48:40;4.20;97.20
36450;DHT22;22475;51.390;7.180;2022-12-11T05:51:07;4.20;97.20
36450;DHT22;22475;51.390;7.180;2022-12-11T05:53:35;4.20;97.10
36450;DHT22;22475;51.390;7.180;2022-12-11T05:56:02;4.20;97.10
36450;DHT22;22475;51.390;7.180;2022-12-11T05:58:30;4.20;97.10
36450;DHT22;22475;51.390;7.180;2022-12-11T06:00:56;4.20;97.20
36450;DHT22;22475;51.390;7.180;2022-12-11T06:03:24;4.30;97.20
36450;DHT22;22475;51.390;7.180;2022-12-11T06:05:51;4.30;97.20
36450;DHT22;22475;51.390;7.180;2022-12-11T06:08:18;4.20;97.20
36450;DHT22;22475;51.390;7.180;2022-12-11T06:10:45;4.30;97.20
36450;DHT22;22475;51.390;7.180;2022-12-11T06:13:12;4.20;97.20
36450;DHT22;22475;51.390;7.180;2022-12-11T06:15:39;4.30;97.30
36450;DHT22;22475;51.390;7.180;2022-12-11T06:18:06;4.30;97.20
36450;DHT22;22475;51.390;7.180;2022-12-11T06:20:34;4.30;97.20
36450;DHT22;22475;51.390;7.180;2022-12-11T06:23:01;4.30;97.30
36450;DHT22;22475;51.390;7.180;2022-12-11T06:25:29;4.30;97.20
36450;DHT22;22475;51.390;7.180;2022-12-11T06:27:56;4.30;97.20
36450;DHT22;22475;51.390;7.180;2022-12-11T06:30:23;4.30;97.20
36450;DHT22;22475;51.390;7.180;2022-12-11T06:32:50;4.30;97.20
36450;DHT22;22475;51.390;7.180;2022-12-11T06:35:16;4.30;97.20
36450;DHT22;22475;51.390;7.180;2022-12-11T06:37:44;4.40;97.20
36450;DHT22;22475;51.390;7.180;2022-12-11T06:40:11;4.30;97.20
36450;DHT22;22475;51.390;7.180;2022-12-11T06:42:38;4.40;97.10
36450;DHT22;22475;51.390;7.180;2022-12-11T06:45:06;4.30;97.10
36450;DHT22;22475;51.390;7.180;2022-12-11T06:47:33;4.40;97.10
36450;DHT22;22475;51.390;7.180;2022-12-11T06:50:00;4.40;97.10
36450;DHT22;22475;51.390;7.180;2022-12-11T06:52:27;4.40;97.10
36450;DHT22;22475;51.390;7.180;2022-12-11T06:54:56;4.40;97.10
36450;DHT22;22475;51.390;7.180;2022-12-11T06:57:23;4.40;97.10
36450;DHT22;22475;51.390;7.180;2022-12-11T06:59:50;4.40;97.10
36450;DHT22;22475;51.390;7.180;2022-12-11T07:02:20;4.40;97.10
36450;DHT22;22475;51.390;7.180;2022-12-11T07:04:46;4.40;97.10
36450;DHT22;22475;51.390;7.180;2022-12-11T07:07:13;4.40;97.10
36450;DHT22;22475;51.390;7.180;2022-12-11T07:09:40;4.40;97.10
36450;DHT22;22475;51.390;7.180;2022-12-11T07:12:08;4.40;97.10
36450;DHT22;22475;51.390;7.180;2022-12-11T07:14:35;4.40;97.00
36450;DHT22;22475;51.390;7.180;2022-12-11T07:17:02;4.40;97.10
36450;DHT22;22475;51.390;7.180;2022-12-11T07:19:28;4.40;97.00
36450;DHT22;22475;51.390;7.180;2022-12-11T07:21:55;4.40;97.00
36450;DHT22;22475;51.390;7.180;2022-12-11T07:24:22;4.40;97.10
36450;DHT22;22475;51.390;7.180;2022-12-11T07:26:49;4.40;97.10
36450;DHT22;22475;51.390;7.180;2022-12-11T07:29:17;4.40;97.00
36450;DHT22;22475;51.390;7.180;2022-12-11T07:31:44;4.40;97.00
36450;DHT22;22475;51.390;7.180;2022-12-11T07:34:11;4.40;97.10
36450;DHT22;22475;51.390;7.180;2022-12-11T07:36:38;4.40;97.10
36450;DHT22;22475;51.390;7.180;2022-12-11T07:39:06;4.40;97.10
36450;DHT22;22475;51.390;7.180;2022-12-11T07:41:33;4.40;97.10
36450;DHT22;22475;51.390;7.180;2022-12-11T07:44:00;4.40;97.10
36450;DHT22;22475;51.390;7.180;2022-12-11T07:46:31;4.40;97.10
36450;DHT22;22475;51.390;7.180;2022-12-11T07:48:58;4.40;97.10
36450;DHT22;22475;51.390;7.180;2022-12-11T07:51:28;4.40;97.10
36450;DHT22;22475;51.390;7.180;2022-12-11T07:53:56;4.40;97.20
36450;DHT22;22475;51.390;7.180;2022-12-11T07:56:24;4.50;97.20
36450;DHT22;22475;51.390;7.180;2022-12-11T07:58:50;4.40;97.20
36450;DHT22;22475;51.390;7.180;2022-12-11T08:01:19;4.40;97.10
36450;DHT22;22475;51.390;7.180;2022-12-11T08:03:47;4.40;97.50
36450;DHT22;22475;51.390;7.180;2022-12-11T08:06:15;4.40;97.20
36450;DHT22;22475;51.390;7.180;2022-12-11T08:08:42;4.40;97.20
36450;DHT22;22475;51.390;7.180;2022-12-11T08:11:11;4.40;97.20
36450;DHT22;22475;51.390;7.180;2022-12-11T08:13:38;4.40;97.20
36450;DHT22;22475;51.390;7.180;2022-12-11T08:16:06;4.40;97.20
36450;DHT22;22475;51.390;7.180;2022-12-11T08:18:35;4.40;97.20
36450;DHT22;22475;51.390;7.180;2022-12-11T08:21:05;4.40;97.20
36450;DHT22;22475;51.390;7.180;2022-12-11T08:23:32;4.40;97.20
36450;DHT22;22475;51.390;7.180;2022-12-11T08:26:01;4.40;97.60
36450;DHT22;22475;51.390;7.180;2022-12-11T08:28:28;4.40;97.30
36450;DHT22;22475;51.390;7.180;2022-12-11T08:30:55;4.40;97.30
36450;DHT22;22475;51.390;7.180;2022-12-11T08:33:22;4.40;97.30
36450;DHT22;22475;51.390;7.180;2022-12-11T08:35:48;4.40;97.30
36450;DHT22;22475;51.390;7.180;2022-12-11T08:38:17;4.40;97.30
36450;DHT22;22475;51.390;7.180;2022-12-11T08:40:43;4.40;97.30
36450;DHT22;22475;51.390;7.180;2022-12-11T08:43:10;4.40;97.30
36450;DHT22;22475;51.390;7.180;2022-12-11T08:45:37;4.40;97.30
36450;DHT22;22475;51.390;7.180;2022-12-11T08:48:05;4.40;97.40
36450;DHT22;22475;51.390;7.180;2022-12-11T08:50:31;4.40;97.30
36450;DHT22;22475;51.390;7.180;2022-12-11T08:52:58;4.40;97.30
36450;DHT22;22475;51.390;7.180;2022-12-11T08:55:26;4.40;97.30
36450;DHT22;22475;51.390;7.180;2022-12-11T08:57:53;4.40;97.40
36450;DHT22;22475;51.390;7.180;2022-12-11T09:00:20;4.50;97.30
36450;DHT22;22475;51.390;7.180;2022-12-11T09:02:47;4.50;97.30
36450;DHT22;22475;51.390;7.180;2022-12-11T09:05:14;4.50;97.40
36450;DHT22;22475;51.390;7.180;2022-12-11T09:07:41;4.50;97.40
36450;DHT22;22475;51.390;7.180;2022-12-11T09:10:08;4.50;97.40
36450;DHT22;22475;51.390;7.180;2022-12-11T09:12:36;4.50;97.40
36450;DHT22;22475;51.390;7.180;2022-12-11T09:15:04;4.60;97.40
36450;DHT22;22475;51.390;7.180;2022-12-11T09:17:32;4.60;97.40
36450;DHT22;22475;51.390;7.180;2022-12-11T09:19:59;4.60;97.30
36450;DHT22;22475;51.390;7.180;2022-12-11T09:22:26;4.60;97.40
36450;DHT22;22475;51.390;7.180;2022-12-11T09:24:53;4.60;97.30
36450;DHT22;22475;51.390;7.180;2022-12-11T09:27:19;4.60;97.30
36450;DHT22;22475;51.390;7.180;2022-12-11T09:29:48;4.60;97.30
36450;DHT22;22475;51.390;7.180;2022-12-11T09:32:14;4.60;97.40
36450;DHT22;22475;51.390;7.180;2022-12-11T09:34:41;4.60;97.40
36450;DHT22;22475;51.390;7.180;2022-12-11T09:37:08;4.60;97.40
36450;DHT22;22475;51.390;7.180;2022-12-11T09:39:34;4.60;97.40
36450;DHT22;22475;51.390;7.180;2022-12-11T09:42:05;4.60;97.40
36450;DHT22;22475;51.390;7.180;2022-12-11T09:44:38;4.60;97.40
36450;DHT22;22475;51.390;7.180;2022-12-11T09:47:20;4.60;97.40
36450;DHT22;22475;51.390;7.180;2022-12-11T09:49:49;4.60;97.40
36450;DHT22;22475;51.390;7.180;2022-12-11T09:52:24;4.60;97.30
36450;DHT22;22475;51.390;7.180;2022-12-11T09:54:56;4.60;97.30
36450;DHT22;22475;51.390;7.180;2022-12-11T09:57:32;4.70;97.30
36450;DHT22;22475;51.390;7.180;2022-12-11T10:00:06;4.60;97.40
36450;DHT22;22475;51.390;7.180;2022-12-11T10:02:56;4.60;97.20
36450;DHT22;22475;51.390;7.180;2022-12-11T10:05:31;4.70;97.20
36450;DHT22;22475;51.390;7.180;2022-12-11T10:08:07;4.60;97.30
36450;DHT22;22475;51.390;7.180;2022-12-11T10:10:41;4.60;97.30
36450;DHT22;22475;51.390;7.180;2022-12-11T10:13:20;4.60;97.30
36450;DHT22;22475;51.390;7.180;2022-12-11T10:15:51;4.60;97.30
36450;DHT22;22475;51.390;7.180;2022-12-11T10:21:33;4.60;97.20
36450;DHT22;22475;51.390;7.180;2022-12-11T10:24:39;4.60;97.20
36450;DHT22;22475;51.390;7.180;2022-12-11T10:27:14;4.60;97.20
36450;DHT22;22475;51.390;7.180;2022-12-11T10:29:43;4.70;97.20
36450;DHT22;22475;51.390;7.180;2022-12-11T10:32:19;4.60;97.30
36450;DHT22;22475;51.390;7.180;2022-12-11T10:34:52;4.60;97.30
36450;DHT22;22475;51.390;7.180;2022-12-11T10:37:20;4.60;97.30
36450;DHT22;22475;51.390;7.180;2022-12-11T10:39:47;4.60;97.30
36450;DHT22;22475;51.390;7.180;2022-12-11T10:42:17;4.60;97.30
36450;DHT22;22475;51.390;7.180;2022-12-11T10:44:55;4.60;97.30
36450;DHT22;22475;51.390;7.180;2022-12-11T10:47:21;4.60;97.30
36450;DHT22;22475;51.390;7.180;2022-12-11T10:49:53;4.60;97.20
36450;DHT22;22475;51.390;7.180;2022-12-11T10:52:23;4.70;97.30
36450;DHT22;22475;51.390;7.180;2022-12-11T10:54:56;4.60;97.30
36450;DHT22;22475;51.390;7.180;2022-12-11T10:57:27;4.60;97.30
36450;DHT22;22475;51.390;7.180;2022-12-11T10:59:55;4.60;97.30
36450;DHT22;22475;51.390;7.180;2022-12-11T11:02:25;4.60;97.30
36450;DHT22;22475;51.390;7.180;2022-12-11T11:04:54;4.60;97.30
36450;DHT22;22475;51.390;7.180;2022-12-11T11:07:23;4.60;97.30
36450;DHT22;22475;51.390;7.180;2022-12-11T11:09:59;4.60;97.30
36450;DHT22;22475;51.390;7.180;2022-12-11T11:12:36;4.70;97.30
36450;DHT22;22475;51.390;7.180;2022-12-11T11:15:09;4.70;97.30
36450;DHT22;22475;51.390;7.180;2022-12-11T11:17:42;4.70;97.30
36450;DHT22;22475;51.390;7.180;2022-12-11T11:20:14;4.70;97.20
36450;DHT22;22475;51.390;7.180;2022-12-11T11:22:44;4.70;97.20
36450;DHT22;22475;51.390;7.180;2022-12-11T11:25:16;4.80;97.20
36450;DHT22;22475;51.390;7.180;2022-12-11T11:27:49;4.80;97.20
36450;DHT22;22475;51.390;7.180;2022-12-11T11:30:20;4.80;97.10
36450;DHT22;22475;51.390;7.180;2022-12-11T11:32:49;4.80;97.10
36450;DHT22;22475;51.390;7.180;2022-12-11T11:35:20;4.80;97.10
36450;DHT22;22475;51.390;7.180;2022-12-11T11:37:57;4.80;97.00
36450;DHT22;22475;51.390;7.180;2022-12-11T11:40:28;4.80;97.10
36450;DHT22;22475;51.390;7.180;2022-12-11T11:43:02;4.80;97.10
36450;DHT22;22475;51.390;7.180;2022-12-11T11:45:35;4.80;97.10
36450;DHT22;22475;51.390;7.180;2022-12-11T11:48:15;4.80;97.00
36450;DHT22;22475;51.390;7.180;2022-12-11T11:50:47;4.80;97.00
36450;DHT22;22475;51.390;7.180;2022-12-11T11:53:20;4.80;97.00
36450;DHT22;22475;51.390;7.180;2022-12-11T11:55:57;4.70;97.00
36450;DHT22;22475;51.390;7.180;2022-12-11T11:58:32;4.70;97.00
36450;DHT22;22475;51.390;7.180;2022-12-11T12:01:02;4.70;97.00
36450;DHT22;22475;51.390;7.180;2022-12-11T12:03:29;4.70;97.00
36450;DHT22;22475;51.390;7.180;2022-12-11T12:06:06;4.70;97.00
36450;DHT22;22475;51.390;7.180;2022-12-11T12:08:41;4.70;97.00
36450;DHT22;22475;51.390;7.180;2022-12-11T12:11:18;4.70;97.00
36450;DHT22;22475;51.390;7.180;2022-12-11T12:13:56;4.70;97.00
36450;DHT22;22475;51.390;7.180;2022-12-11T12:16:32;4.70;97.10
36450;DHT22;22475;51.390;7.180;2022-12-11T12:19:09;4.70;97.10
36450;DHT22;22475;51.390;7.180;2022-12-11T12:21:42;4.70;97.10
36450;DHT22;22475;51.390;7.180;2022-12-11T12:24:21;4.70;97.00
36450;DHT22;22475;51.390;7.180;2022-12-11T12:26:54;4.70;97.00
36450;DHT22;22475;51.390;7.180;2022-12-11T12:29:42;4.70;97.00
36450;DHT22;22475;51.390;7.180;2022-12-11T12:32:17;4.70;97.00
36450;DHT22;22475;51.390;7.180;2022-12-11T12:34:54;4.70;97.10
36450;DHT22;22475;51.390;7.180;2022-12-11T12:37:39;4.70;97.10
36450;DHT22;22475;51.390;7.180;2022-12-11T12:40:19;4.70;97.10
36450;DHT22;22475;51.390;7.180;2022-12-11T12:42:53;4.70;97.10
36450;DHT22;22475;51.390;7.180;2022-12-11T12:45:27;4.70;97.10
36450;DHT22;22475;51.390;7.180;2022-12-11T12:47:54;4.70;97.10
36450;DHT22;22475;51.390;7.180;2022-12-11T12:50:24;4.70;97.10
36450;DHT22;22475;51.390;7.180;2022-12-11T12:52:54;4.70;97.10
36450;DHT22;22475;51.390;7.180;2022-12-11T12:55:23;4.70;97.10
36450;DHT22;22475;51.390;7.180;2022-12-11T12:57:52;4.70;97.10
36450;DHT22;22475;51.390;7.180;2022-12-11T13:00:28;4.70;97.10
36450;DHT22;22475;51.390;7.180;2022-12-11T13:02:56;4.70;97.30
36450;DHT22;22475;51.390;7.180;2022-12-11T13:05:24;4.80;97.10
36450;DHT22;22475;51.390;7.180;2022-12-11T13:07:56;4.80;97.10
36450;DHT22;22475;51.390;7.180;2022-12-11T13:10:30;4.80;97.10
36450;DHT22;22475;51.390;7.180;2022-12-11T13:12:58;4.80;97.10
36450;DHT22;22475;51.390;7.180;2022-12-11T13:15:31;4.80;97.10
36450;DHT22;22475;51.390;7.180;2022-12-11T13:17:59;4.80;97.10
36450;DHT22;22475;51.390;7.180;2022-12-11T13:20:28;4.80;97.00
36450;DHT22;22475;51.390;7.180;2022-12-11T13:23:15;4.80;97.00
36450;DHT22;22475;51.390;7.180;2022-12-11T13:25:51;4.80;97.40
36450;DHT22;22475;51.390;7.180;2022-12-11T13:28:33;4.80;97.00
36450;DHT22;22475;51.390;7.180;2022-12-11T13:31:28;4.80;97.00
36450;DHT22;22475;51.390;7.180;2022-12-11T13:33:56;4.80;97.00
36450;DHT22;22475;51.390;7.180;2022-12-11T13:36:28;4.80;97.00
36450;DHT22;22475;51.390;7.180;2022-12-11T13:39:00;4.80;97.00
36450;DHT22;22475;51.390;7.180;2022-12-11T13:41:31;4.90;97.10
36450;DHT22;22475;51.390;7.180;2022-12-11T13:44:00;4.90;97.00
36450;DHT22;22475;51.390;7.180;2022-12-11T13:46:29;4.90;97.10
36450;DHT22;22475;51.390;7.180;2022-12-11T13:49:00;4.90;97.00
36450;DHT22;22475;51.390;7.180;2022-12-11T13:51:28;4.90;97.00
36450;DHT22;22475;51.390;7.180;2022-12-11T13:54:12;4.90;97.00
36450;DHT22;22475;51.390;7.180;2022-12-11T13:56:51;4.90;97.00
36450;DHT22;22475;51.390;7.180;2022-12-11T13:59:26;4.90;97.00
36450;DHT22;22475;51.390;7.180;2022-12-11T14:01:55;4.90;96.90
36450;DHT22;22475;51.390;7.180;2022-12-11T14:04:24;4.90;96.90
36450;DHT22;22475;51.390;7.180;2022-12-11T14:06:52;4.90;97.20
36450;DHT22;22475;51.390;7.180;2022-12-11T14:09:23;4.90;96.80
36450;DHT22;22475;51.390;7.180;2022-12-11T14:11:51;4.90;96.80
36450;DHT22;22475;51.390;7.180;2022-12-11T14:14:22;4.90;96.80
36450;DHT22;22475;51.390;7.180;2022-12-11T14:16:51;4.90;96.80
36450;DHT22;22475;51.390;7.180;2022-12-11T14:19:19;4.90;96.80
36450;DHT22;22475;51.390;7.180;2022-12-11T14:21:57;5.00;96.80
36450;DHT22;22475;51.390;7.180;2022-12-11T14:24:26;4.90;96.80
36450;DHT22;22475;51.390;7.180;2022-12-11T14:26:54;4.90;96.80
36450;DHT22;22475;51.390;7.180;2022-12-11T14:29:28;4.90;96.80
36450;DHT22;22475;51.390;7.180;2022-12-11T14:31:58;4.90;96.80
36450;DHT22;22475;51.390;7.180;2022-12-11T14:34:29;4.90;96.80
36450;DHT22;22475;51.390;7.180;2022-12-11T14:36:58;4.90;96.80
36450;DHT22;22475;51.390;7.180;2022-12-11T14:39:30;4.90;96.80
36450;DHT22;22475;51.390;7.180;2022-12-11T14:42:01;4.90;96.80
36450;DHT22;22475;51.390;7.180;2022-12-11T14:44:30;4.90;96.80
36450;DHT22;22475;51.390;7.180;2022-12-11T14:47:02;4.90;96.80
36450;DHT22;22475;51.390;7.180;2022-12-11T14:49:40;4.90;96.80
36450;DHT22;22475;51.390;7.180;2022-12-11T14:52:13;4.90;96.80
36450;DHT22;22475;51.390;7.180;2022-12-11T14:54:44;4.90;96.80
36450;DHT22;22475;51.390;7.180;2022-12-11T14:57:13;5.00;96.80
36450;DHT22;22475;51.390;7.180;2022-12-11T14:59:45;5.00;96.80
36450;DHT22;22475;51.390;7.180;2022-12-11T15:02:25;5.00;96.70
36450;DHT22;22475;51.390;7.180;2022-12-11T15:05:12;5.00;96.70
36450;DHT22;22475;51.390;7.180;2022-12-11T15:07:42;5.00;96.60
36450;DHT22;22475;51.390;7.180;2022-12-11T15:10:27;5.00;96.60
36450;DHT22;22475;51.390;7.180;2022-12-11T15:12:56;5.00;96.70
36450;DHT22;22475;51.390;7.180;2022-12-11T15:15:24;5.00;96.70
36450;DHT22;22475;51.390;7.180;2022-12-11T15:17:51;5.00;96.70
36450;DHT22;22475;51.390;7.180;2022-12-11T15:20:23;4.90;96.60
36450;DHT22;22475;51.390;7.180;2022-12-11T15:22:51;5.00;96.70
36450;DHT22;22475;51.390;7.180;2022-12-11T15:25:21;4.90;96.70
36450;DHT22;22475;51.390;7.180;2022-12-11T15:27:50;4.90;96.70
36450;DHT22;22475;51.390;7.180;2022-12-11T15:30:29;4.90;96.70
36450;DHT22;22475;51.390;7.180;2022-12-11T15:33:14;4.90;96.70
36450;DHT22;22475;51.390;7.180;2022-12-11T15:35:53;4.90;96.80
36450;DHT22;22475;51.390;7.180;2022-12-11T15:38:27;4.90;96.70
36450;DHT22;22475;51.390;7.180;2022-12-11T15:40:56;4.90;96.80
36450;DHT22;22475;51.390;7.180;2022-12-11T15:43:23;4.90;96.80
36450;DHT22;22475;51.390;7.180;2022-12-11T15:45:50;4.90;96.70
36450;DHT22;22475;51.390;7.180;2022-12-11T15:48:16;4.90;96.80
36450;DHT22;22475;51.390;7.180;2022-12-11T15:50:43;4.90;96.70
36450;DHT22;22475;51.390;7.180;2022-12-11T15:53:10;4.90;96.70
36450;DHT22;22475;51.390;7.180;2022-12-11T15:55:37;4.90;96.80
36450;DHT22;22475;51.390;7.180;2022-12-11T15:58:07;4.90;96.80
36450;DHT22;22475;51.390;7.180;2022-12-11T16:00:37;4.90;96.80
36450;DHT22;22475;51.390;7.180;2022-12-11T16:03:03;4.90;96.80
36450;DHT22;22475;51.390;7.180;2022-12-11T16:05:30;4.90;96.80
36450;DHT22;22475;51.390;7.180;2022-12-11T16:07:57;4.90;96.80